Apelacao, Portugal

6:09 AM AZOT on February 22, 2017 (GMT -0100)
Rua Marechal Costa Gomes | | Change Station

Elev 187 ft 38.80 °N, 9.11 °W | Updated 2 minutes ago

Clear
Clear
54.9 °F
Feels Like 54.9 °F
N
1.9
Wind Variable Wind from West
Gusts 3.1 mph

Today
High -- | Low -- °F
--% Chance of Precip.
Yesterday
High -- | Low -- °F
Precip. -- in
Pressure 30.04 in
Visibility -9999.0 miles
Clouds
Dew Point 41 °F
Humidity 59%
Rainfall 0.00 in
Snow Depth Not available.
6:18 AM 5:21 PM
Waning Crescent, 19% visible
METAR LPPT 220700Z 03007KT CAVOK 11/04 Q1017
Pressure 30.04 in
Visibility -9999.0 miles
Clouds
Dew Point 41 °F
Humidity 59%
Rainfall 0.00 in
Snow Depth Not available.
6:18 AM 5:21 PM
Waning Crescent, 19% visible
METAR LPPT 220700Z 03007KT CAVOK 11/04 Q1017

Get Your Daily Forecast Email!

Thanks for signing up!

Be on the lookout for a verification email in your inbox.

You'll start receiving the daily forecast at 8 AM.

×

10-Day Weather Forecast

×

Almanac

Astronomy

Feb. 22, 2017 Rise Set
Actual Time
Civil Twilight
Nautical Twilight
Astronomical Twilight
Moon
Length of Visible Light
Length of Day
Tomorrow will be .
, % of the Moon is Illuminated

Today's Extremes

Country Highs Country Lows

Community

WunderPhotos

Upload Photos

1,962,540 photos uploaded!

WunderBlog® & News

Nearby

Air Quality

  Air Quality AQ Index Pollutant
Not available.

Snow Depth

Station Depth Elevation

Earthquake Activity

City Distance Mag. Time & Date
Minimum magnitude displayed is 2.5.

Coastal Water Temperatures

Place Temperature

Stations

Nearby Weather Stations

Station Location Temp. Windchill Dew Point Humidity Wind Precip. Elev Updated Type